Time;durP1;ratioP1;P1;durP2;ratioP2;P2;SDS_P1;SDS_P2;PMS_P1;PMS_P2;Temp;Humidity;BMP_temperature;BMP_pressure;BME280_temperature;BME280_humidity;BME280_pressure;Samples;Min_cycle;Max_cycle;Signal;HPM_P1;HPM_P2
2022/09/28 00:01:57;;;;;;;2.50;1.70;;;9.20;99.90;;;10.03;100.00;96225.81;4970535;28;20528;-83
2022/09/28 00:04:26;;;;;;;1.60;1.50;;;9.20;99.90;;;10.04;100.00;96227.38;4970905;28;20528;-83
2022/09/28 00:06:55;;;;;;;4.30;2.00;;;9.20;99.90;;;10.04;100.00;96227.38;4969842;28;20895;-83
2022/09/28 00:09:24;;;;;;;2.63;1.80;;;9.20;99.90;;;10.02;100.00;96225.00;4969797;28;21020;-83
2022/09/28 00:11:55;;;;;;;3.60;1.90;;;9.20;99.90;;;10.04;100.00;96228.19;4970424;28;20526;-83
2022/09/28 00:14:24;;;;;;;3.13;2.03;;;9.20;99.90;;;10.06;100.00;96213.09;4969919;28;20488;-84
2022/09/28 00:16:53;;;;;;;5.07;1.60;;;9.20;99.90;;;10.05;100.00;96206.28;4969601;28;21011;-84
2022/09/28 00:19:22;;;;;;;8.30;2.23;;;9.20;99.90;;;10.06;100.00;96204.47;4970195;28;20475;-84
2022/09/28 00:21:50;;;;;;;4.97;2.10;;;9.20;99.90;;;10.06;100.00;96207.06;4970570;28;20591;-84
2022/09/28 00:24:19;;;;;;;1.50;1.40;;;9.30;99.90;;;10.08;100.00;96199.78;4969160;28;20508;-83
2022/09/28 00:26:59;;;;;;;2.20;2.00;;;9.30;99.90;;;10.08;100.00;96191.97;4969747;28;20519;-84
2022/09/28 00:29:31;;;;;;;2.83;1.90;;;9.30;99.90;;;10.08;100.00;96205.81;4969581;28;20540;-84
2022/09/28 00:32:04;;;;;;;4.83;1.60;;;9.30;99.90;;;10.09;100.00;96201.38;4969254;28;20487;-84
2022/09/28 00:34:37;;;;;;;5.93;1.60;;;9.30;99.90;;;10.08;100.00;96197.19;4970181;28;20477;-84
2022/09/28 00:37:08;;;;;;;2.70;1.67;;;9.30;99.90;;;10.09;100.00;96202.19;4969806;28;20449;-83
2022/09/28 00:39:39;;;;;;;4.50;1.67;;;9.30;99.90;;;10.09;100.00;96199.56;4969593;28;20441;-83
2022/09/28 00:42:16;;;;;;;2.07;1.80;;;9.30;99.90;;;10.08;100.00;96200.59;4969882;28;21007;-83
2022/09/28 00:44:49;;;;;;;2.63;1.83;;;9.30;99.90;;;10.10;100.00;96195.13;4969388;28;21108;-84
2022/09/28 00:47:45;;;;;;;1.93;1.73;;;9.30;99.90;;;10.11;100.00;96197.53;4969071;28;20552;-84
2022/09/28 00:50:26;;;;;;;8.53;1.57;;;9.30;99.90;;;10.13;100.00;96186.06;4969692;28;21809;-83
2022/09/28 00:53:02;;;;;;;2.27;1.43;;;9.40;99.90;;;10.13;100.00;96184.25;4969956;28;21038;-83
2022/09/28 00:55:36;;;;;;;3.33;1.60;;;9.40;99.90;;;10.13;100.00;96182.41;4970523;28;20484;-83
2022/09/28 00:58:11;;;;;;;3.20;1.33;;;9.40;99.90;;;10.15;100.00;96181.41;4970896;28;20441;-83
2022/09/28 01:00:40;;;;;;;1.70;1.33;;;9.50;99.90;;;10.15;100.00;96177.00;4969769;28;20444;-85
2022/09/28 01:03:12;;;;;;;5.20;1.80;;;9.50;99.90;;;10.17;100.00;96171.56;4970665;28;20461;-84
2022/09/28 01:05:41;;;;;;;2.60;1.50;;;9.40;99.90;;;10.16;100.00;96173.38;4970442;28;20539;-84
2022/09/28 01:08:12;;;;;;;1.60;1.40;;;9.50;99.90;;;10.17;100.00;96172.31;4969566;28;20608;-83
2022/09/28 01:10:42;;;;;;;1.57;1.30;;;9.50;99.90;;;10.18;100.00;96171.31;4970627;28;20464;-83
2022/09/28 01:13:12;;;;;;;4.37;1.33;;;9.50;99.90;;;10.19;100.00;96162.44;4970569;28;20484;-83
2022/09/28 01:15:54;;;;;;;5.03;1.30;;;9.50;99.90;;;10.20;100.00;96164.03;4970581;28;20477;-83
2022/09/28 01:18:38;;;;;;;2.53;1.37;;;9.50;99.90;;;10.20;100.00;96164.03;4969908;28;20480;-83
2022/09/28 01:21:16;;;;;;;2.20;1.40;;;9.60;99.90;;;10.18;100.00;96158.25;4969570;28;20443;-84
2022/09/28 01:24:14;;;;;;;10.20;1.30;;;9.50;99.90;;;10.19;100.00;96165.06;4968618;28;20441;-83
2022/09/28 01:26:57;;;;;;;4.67;1.30;;;9.50;99.90;;;10.21;100.00;96165.63;4969059;28;20569;-83
2022/09/28 01:29:52;;;;;;;2.40;1.13;;;9.50;99.90;;;10.21;100.00;96170.03;4969132;28;20543;-83
2022/09/28 01:32:35;;;;;;;5.03;1.23;;;9.50;99.90;;;10.21;100.00;96168.22;4969556;28;20460;-83
2022/09/28 01:35:09;;;;;;;4.77;1.27;;;9.50;99.90;;;10.22;100.00;96169.03;4969663;28;20445;-83
2022/09/28 01:37:50;;;;;;;2.03;1.37;;;9.50;99.90;;;10.21;100.00;96175.25;4968588;28;20519;-83
2022/09/28 01:40:22;;;;;;;3.90;1.97;;;9.50;99.90;;;10.22;100.00;96172.44;4968003;28;20531;-84
2022/09/28 01:43:00;;;;;;;1.63;1.37;;;9.50;99.90;;;10.23;100.00;96179.25;4969408;28;20447;-83
2022/09/28 01:45:36;;;;;;;4.30;1.40;;;9.50;99.90;;;10.24;100.00;96175.59;4967190;28;20534;-82
2022/09/28 01:48:10;;;;;;;3.03;1.47;;;9.60;99.90;;;10.24;100.00;96172.97;4969039;28;20947;-83
2022/09/28 01:50:45;;;;;;;2.17;1.30;;;9.50;99.90;;;10.24;100.00;96170.38;4968626;28;20500;-84
2022/09/28 01:53:22;;;;;;;5.13;1.40;;;9.50;99.90;;;10.25;100.00;96166.75;4969039;28;20881;-83
2022/09/28 01:55:57;;;;;;;2.03;1.67;;;9.50;99.90;;;10.25;100.00;96171.97;4969304;28;20456;-84
2022/09/28 01:58:38;;;;;;;3.00;1.10;;;9.50;99.90;;;10.25;100.00;96161.53;4968252;28;20471;-84
2022/09/28 02:01:15;;;;;;;5.97;1.90;;;9.60;99.90;;;10.23;100.00;96153.13;4969433;28;20448;-83
2022/09/28 02:03:53;;;;;;;1.80;1.10;;;9.50;99.90;;;10.22;100.00;96150.75;4968615;28;20528;-84
2022/09/28 02:06:31;;;;;;;1.47;1.20;;;9.50;99.90;;;10.19;100.00;96140.75;4969280;28;20499;-83
2022/09/28 02:09:10;;;;;;;9.83;1.13;;;9.50;99.90;;;10.17;100.00;96151.44;4969104;28;20551;-83
2022/09/28 02:11:46;;;;;;;3.90;1.30;;;9.40;99.90;;;10.16;100.00;96149.06;4970030;28;20644;-83
2022/09/28 02:14:19;;;;;;;2.30;1.17;;;9.50;99.90;;;10.09;100.00;96142.13;4969775;28;20456;-85
2022/09/28 02:16:53;;;;;;;1.03;0.97;;;9.30;99.90;;;10.09;100.00;96146.56;4969341;28;20543;-83
2022/09/28 02:19:25;;;;;;;5.17;1.47;;;9.40;99.90;;;10.02;100.00;96148.50;4968678;28;20482;-83
2022/09/28 02:22:02;;;;;;;5.50;1.50;;;9.20;99.90;;;9.99;100.00;96152.38;4969308;28;20961;-83
2022/09/28 02:24:39;;;;;;;2.73;2.00;;;9.20;99.90;;;9.95;100.00;96153.84;4969683;28;20483;-83
2022/09/28 02:27:16;;;;;;;5.03;1.10;;;9.20;99.90;;;9.93;100.00;96155.06;4968794;28;20452;-83
2022/09/28 02:29:46;;;;;;;2.37;1.37;;;9.10;99.90;;;9.92;100.00;96151.69;4969002;28;20877;-83
2022/09/28 02:32:16;;;;;;;1.33;1.00;;;9.20;99.90;;;9.89;100.00;96144.28;4968700;28;20483;-83
2022/09/28 02:34:45;;;;;;;1.60;1.30;;;9.20;99.90;;;9.90;100.00;96147.69;4969098;28;20488;-83
2022/09/28 02:37:14;;;;;;;3.60;1.53;;;9.10;99.90;;;9.87;100.00;96142.94;4968975;28;20531;-84
2022/09/28 02:39:42;;;;;;;4.43;1.43;;;9.20;99.90;;;9.86;100.00;96149.97;4972261;28;20481;-84
2022/09/28 02:42:24;;;;;;;3.00;1.37;;;9.10;99.90;;;9.85;100.00;96156.25;4972110;28;20480;-83
2022/09/28 02:45:20;;;;;;;6.07;1.20;;;9.10;99.90;;;9.84;100.00;96151.22;4972374;28;20850;-83
2022/09/28 02:48:08;;;;;;;1.20;0.97;;;9.00;99.90;;;9.83;100.00;96152.25;4972717;28;20535;-83
2022/09/28 02:50:51;;;;;;;1.73;1.30;;;9.00;99.90;;;9.79;100.00;96146.69;4973691;28;20562;-83
2022/09/28 02:54:11;;;;;;;4.90;1.60;;;9.00;99.90;;;9.82;100.00;96145.47;4972474;28;20563;-84
2022/09/28 02:57:02;;;;;;;3.27;1.50;;;9.00;99.90;;;9.76;100.00;96144.53;4972171;28;20984;-84
2022/09/28 02:59:49;;;;;;;2.70;1.10;;;9.00;99.90;;;9.73;100.00;96146.81;4972161;28;20531;-84
2022/09/28 03:02:32;;;;;;;2.33;1.30;;;8.90;99.90;;;9.74;100.00;96145.81;4972082;28;20461;-83
2022/09/28 03:05:14;;;;;;;3.37;1.17;;;8.90;99.90;;;9.68;100.00;96138.91;4972078;28;20484;-84
2022/09/28 03:07:57;;;;;;;3.97;1.43;;;8.90;99.90;;;9.69;100.00;96148.28;4972771;28;20451;-84
2022/09/28 03:10:37;;;;;;;1.50;1.30;;;8.90;99.90;;;9.65;100.00;96139.34;4972153;28;20996;-84
2022/09/28 03:13:07;;;;;;;2.73;1.30;;;8.90;99.90;;;9.67;100.00;96142.50;4972226;28;20963;-83
2022/09/28 03:15:36;;;;;;;1.30;1.20;;;8.90;99.90;;;9.64;100.00;96146.38;4971433;28;20961;-84
2022/09/28 03:18:07;;;;;;;2.73;1.20;;;8.80;99.90;;;9.64;100.00;96143.78;4971204;28;20503;-84
2022/09/28 03:20:36;;;;;;;2.40;1.10;;;8.80;99.90;;;9.64;100.00;96140.38;4972007;28;20531;-84
2022/09/28 03:23:05;;;;;;;7.10;1.40;;;8.90;99.90;;;9.63;100.00;96146.59;4971494;28;20500;-84
2022/09/28 03:25:52;;;;;;;6.13;1.57;;;8.80;99.90;;;9.60;100.00;96148.66;4971676;28;20587;-83
2022/09/28 03:28:21;;;;;;;3.77;1.47;;;8.80;99.90;;;9.54;100.00;96152.16;4971679;28;20610;-83
2022/09/28 03:30:50;;;;;;;16.57;1.60;;;8.70;99.90;;;9.53;100.00;96153.19;4972123;28;20488;-83
2022/09/28 03:33:21;;;;;;;3.50;1.23;;;8.70;99.90;;;9.52;100.00;96150.78;4972502;28;20543;-84
2022/09/28 03:35:50;;;;;;;6.60;1.20;;;8.70;99.90;;;9.52;100.00;96151.59;4971937;28;20449;-83
2022/09/28 03:38:21;;;;;;;1.30;1.20;;;8.70;99.90;;;9.54;100.00;96156.59;4971347;28;20531;-84
2022/09/28 03:40:57;;;;;;;4.43;1.10;;;8.80;99.90;;;9.55;100.00;96156.34;4971863;28;20885;-83
2022/09/28 03:43:29;;;;;;;3.53;1.17;;;8.70;99.90;;;9.54;100.00;96152.16;4970943;28;20812;-83
2022/09/28 03:46:00;;;;;;;2.10;1.20;;;8.70;99.90;;;9.54;100.00;96148.78;4969910;28;20501;-83
2022/09/28 03:48:33;;;;;;;5.27;1.10;;;8.80;99.90;;;9.54;100.00;96152.16;4971430;28;20955;-84
2022/09/28 03:51:05;;;;;;;2.50;1.33;;;8.80;99.90;;;9.54;100.00;96149.53;4970828;28;21029;-83
2022/09/28 03:53:36;;;;;;;4.00;1.73;;;8.80;99.90;;;9.58;100.00;96145.47;4971659;28;20497;-83
2022/09/28 03:56:07;;;;;;;1.40;1.30;;;8.80;99.90;;;9.58;100.00;96145.47;4971635;28;20564;-84
2022/09/28 03:58:36;;;;;;;6.20;1.67;;;8.80;99.90;;;9.58;100.00;96148.06;4970777;28;20499;-83
2022/09/28 04:01:08;;;;;;;3.20;1.00;;;8.80;99.90;;;9.56;100.00;96147.50;4971251;28;20534;-83
2022/09/28 04:03:46;;;;;;;4.53;1.20;;;8.80;99.90;;;9.57;100.00;96149.09;4970998;28;20444;-84
2022/09/28 04:06:15;;;;;;;3.57;1.47;;;8.80;99.90;;;9.57;100.00;96149.09;4970992;28;20492;-84
2022/09/28 04:08:44;;;;;;;5.03;1.87;;;8.80;99.90;;;9.55;100.00;96151.13;4970449;28;20567;-84
2022/09/28 04:11:13;;;;;;;2.67;1.53;;;8.80;99.90;;;9.58;100.00;96152.50;4971727;28;20524;-83
2022/09/28 04:13:43;;;;;;;3.70;1.50;;;8.80;99.90;;;9.57;100.00;96151.72;4971401;28;20489;-84
2022/09/28 04:16:12;;;;;;;4.37;1.37;;;8.80;99.90;;;9.58;100.00;96150.69;4970553;28;20929;-83
2022/09/28 04:18:41;;;;;;;15.80;1.90;;;8.80;99.90;;;9.58;100.00;96149.88;4970583;28;21504;-82
2022/09/28 04:21:14;;;;;;;3.97;1.87;;;8.80;99.90;;;9.57;100.00;96136.06;4970446;28;20528;-83
2022/09/28 04:23:43;;;;;;;4.60;1.80;;;8.90;99.90;;;9.58;100.00;96140.25;4971408;28;20461;-83
2022/09/28 04:26:17;;;;;;;2.10;1.53;;;8.80;99.90;;;9.59;100.00;96148.88;4970146;28;20571;-83
2022/09/28 04:31:40;;;;;;;7.87;1.77;;;8.80;99.90;;;9.56;100.00;96157.94;4970951;28;20477;-84
2022/09/28 04:34:10;;;;;;;5.90;1.63;;;8.80;99.90;;;9.56;100.00;96162.38;4970210;28;20951;-84
2022/09/28 04:36:41;;;;;;;4.57;1.67;;;8.80;99.90;;;9.57;100.00;96163.97;4970666;28;20911;-83
2022/09/28 04:39:09;;;;;;;2.03;1.57;;;8.80;99.90;;;9.56;100.00;96168.38;4969437;28;21130;-84
2022/09/28 04:41:38;;;;;;;3.93;1.60;;;8.80;99.90;;;9.57;100.00;96169.97;4970042;28;20453;-83
2022/09/28 04:44:07;;;;;;;1.83;1.50;;;8.80;99.90;;;9.57;100.00;96169.97;4970349;28;20532;-83
2022/09/28 04:46:36;;;;;;;5.13;1.87;;;8.90;99.90;;;9.55;100.00;96177.22;4969468;28;20545;-83
2022/09/28 04:49:04;;;;;;;2.20;1.70;;;8.80;99.90;;;9.56;100.00;96173.59;4970204;28;20555;-83
2022/09/28 04:51:33;;;;;;;4.13;1.87;;;8.90;99.90;;;9.54;100.00;96175.63;4969246;28;20583;-83
2022/09/28 04:54:03;;;;;;;4.67;2.10;;;8.80;99.90;;;9.54;100.00;96178.25;4970563;28;20506;-83
2022/09/28 04:56:32;;;;;;;1.70;1.60;;;8.80;99.90;;;9.54;100.00;96186.06;4970395;28;21037;-83
2022/09/28 04:59:01;;;;;;;3.90;2.30;;;8.80;99.90;;;9.56;100.00;96184.03;4970020;28;20488;-83
2022/09/28 05:01:30;;;;;;;4.40;1.87;;;8.90;99.90;;;9.54;100.00;96186.06;4968483;28;20945;-83
2022/09/28 05:03:59;;;;;;;3.53;1.70;;;8.80;99.90;;;9.50;100.00;96179.72;4969913;28;20444;-83
2022/09/28 05:06:29;;;;;;;2.27;1.60;;;8.90;99.90;;;9.51;100.00;96180.53;4969762;28;20587;-83
2022/09/28 05:08:59;;;;;;;4.17;2.30;;;8.90;99.90;;;9.49;100.00;96193.78;4970192;28;21066;-83
2022/09/28 05:11:29;;;;;;;2.90;1.70;;;8.80;99.90;;;9.46;100.00;96194.25;4969345;28;20519;-83
2022/09/28 05:13:57;;;;;;;4.13;1.90;;;8.70;99.90;;;9.42;100.00;96198.31;4969482;28;20548;-84
2022/09/28 05:16:28;;;;;;;4.63;2.27;;;8.70;99.90;;;9.37;100.00;96195.56;4969257;28;20469;-83
2022/09/28 05:18:57;;;;;;;7.07;3.27;;;8.70;99.90;;;9.38;100.00;96197.19;4968939;28;20453;-83
2022/09/28 05:21:26;;;;;;;7.70;2.10;;;8.70;99.90;;;9.39;100.00;96190.94;4968279;28;20548;-83
2022/09/28 05:23:57;;;;;;;5.23;3.20;;;8.70;99.90;;;9.40;100.00;96199.56;4965659;28;21062;-83
2022/09/28 05:26:26;;;;;;;3.10;2.33;;;8.60;99.90;;;9.40;100.00;96202.19;4966397;28;21095;-84
2022/09/28 05:28:57;;;;;;;8.13;2.40;;;8.70;99.90;;;9.40;100.00;96202.97;4968066;28;20942;-83
2022/09/28 05:31:26;;;;;;;2.27;1.90;;;8.70;99.90;;;9.41;100.00;96201.94;4966347;28;20500;-83
2022/09/28 05:33:54;;;;;;;1.97;1.73;;;8.70;99.90;;;9.41;100.00;96196.72;4966210;28;20474;-83
2022/09/28 05:36:25;;;;;;;2.83;1.83;;;8.70;99.90;;;9.42;100.00;96203.53;4967487;28;20483;-83
2022/09/28 05:38:54;;;;;;;5.40;1.83;;;8.70;99.90;;;9.42;100.00;96203.53;4967226;28;20468;-84
2022/09/28 05:41:24;;;;;;;4.60;2.80;;;8.70;99.90;;;9.43;100.00;96204.34;4967406;28;20485;-84
2022/09/28 05:43:53;;;;;;;7.73;3.43;;;8.70;99.90;;;9.45;100.00;96202.28;4966782;28;20535;-84
2022/09/28 05:46:23;;;;;;;4.53;2.00;;;8.70;99.90;;;9.46;100.00;96209.09;4962675;28;20489;-84
2022/09/28 05:48:53;;;;;;;3.70;1.90;;;8.70;99.90;;;9.45;100.00;96208.31;4968166;28;20485;-84
2022/09/28 05:51:23;;;;;;;2.73;2.10;;;8.70;99.90;;;9.45;100.00;96207.50;4968671;28;20884;-84
2022/09/28 05:53:55;;;;;;;5.73;1.77;;;8.70;99.90;;;9.40;100.00;96200.38;4968183;28;20496;-84
2022/09/28 05:56:26;;;;;;;9.63;2.00;;;8.80;99.90;;;9.39;100.00;96200.59;4969661;28;20460;-84
2022/09/28 05:58:55;;;;;;;3.63;2.17;;;8.80;99.90;;;9.44;100.00;96201.47;4969856;28;20543;-84
2022/09/28 06:01:25;;;;;;;6.63;1.93;;;8.80;99.90;;;9.46;100.00;96194.25;4968799;28;20496;-84
2022/09/28 06:03:54;;;;;;;5.03;2.00;;;8.90;99.90;;;9.46;100.00;96186.41;4969248;28;20460;-84
2022/09/28 06:06:22;;;;;;;3.00;1.77;;;8.90;99.90;;;9.51;100.00;96196.97;4969212;28;20830;-84
2022/09/28 06:08:51;;;;;;;3.50;2.00;;;8.80;99.90;;;9.51;100.00;96194.34;4968711;28;20503;-85
2022/09/28 06:11:20;;;;;;;3.63;1.70;;;8.90;99.90;;;9.55;100.00;96200.72;4967740;28;20567;-84
2022/09/28 06:13:53;;;;;;;3.57;1.43;;;8.90;99.90;;;9.57;100.00;96203.91;4967046;28;20479;-85
2022/09/28 06:16:22;;;;;;;2.27;1.77;;;9.00;99.90;;;9.55;100.00;96203.31;4966725;28;20914;-85
2022/09/28 06:18:52;;;;;;;46.50;18.27;;;9.00;99.90;;;9.56;100.00;96199.69;4968881;28;20471;-84
2022/09/28 06:21:21;;;;;;;6.43;2.40;;;8.90;99.90;;;9.59;100.00;96203.66;4964340;28;20481;-84
2022/09/28 06:23:50;;;;;;;1.90;1.50;;;9.00;99.90;;;9.61;100.00;96210.22;4965354;28;21025;-85
2022/09/28 06:26:19;;;;;;;5.20;1.43;;;9.00;99.90;;;9.58;100.00;96197.66;4966875;28;20560;-85
2022/09/28 06:28:49;;;;;;;7.03;1.73;;;8.90;99.90;;;9.58;100.00;96191.63;4966575;28;20547;-85
2022/09/28 06:31:22;;;;;;;5.33;2.07;;;9.00;99.90;;;9.60;100.00;96190.41;4966301;28;20540;-84
2022/09/28 06:33:53;;;;;;;3.97;2.00;;;9.00;99.90;;;9.51;100.00;96191.75;4966890;28;20472;-85
2022/09/28 06:36:22;;;;;;;1.90;1.73;;;8.90;99.90;;;9.54;100.00;96196.50;4962266;28;20907;-85
2022/09/28 06:38:52;;;;;;;2.80;2.20;;;8.90;99.90;;;9.56;100.00;96198.91;4968213;28;20469;-84
2022/09/28 06:41:22;;;;;;;2.87;1.53;;;9.00;99.90;;;9.57;100.00;96195.28;4968626;28;20453;-85
2022/09/28 06:43:52;;;;;;;3.03;1.40;;;8.90;99.90;;;9.56;100.00;96201.50;4965726;28;20559;-83
2022/09/28 06:46:22;;;;;;;1.60;1.50;;;8.90;99.90;;;9.56;100.00;96198.91;4966571;28;20461;-83
2022/09/28 06:48:53;;;;;;;1.93;1.60;;;9.00;99.90;;;9.55;100.00;96192.88;4962973;28;20503;-84
2022/09/28 06:51:27;;;;;;;8.20;2.30;;;8.90;99.90;;;9.55;100.00;96200.72;4964023;28;20469;-84
2022/09/28 06:53:59;;;;;;;3.23;2.00;;;8.90;99.90;;;9.53;100.00;96200.16;4964108;28;20476;-84
2022/09/28 06:56:32;;;;;;;7.33;2.23;;;9.00;99.90;;;9.50;100.00;96205.81;4964532;28;20484;-83
2022/09/28 06:59:03;;;;;;;2.93;1.80;;;8.90;99.90;;;9.52;100.00;96209.00;4963690;28;20499;-83
2022/09/28 07:01:33;;;;;;;2.73;1.90;;;9.00;99.90;;;9.53;100.00;96213.19;4965446;28;20534;-83
2022/09/28 07:04:03;;;;;;;4.27;1.83;;;9.00;99.90;;;9.54;100.00;96219.97;4965645;28;20526;-84
2022/09/28 07:06:33;;;;;;;4.33;2.77;;;8.90;99.90;;;9.55;100.00;96226.81;4964985;28;20544;-84
2022/09/28 07:09:09;;;;;;;20.53;9.83;;;9.00;99.90;;;9.57;100.00;96234.41;4966618;28;20507;-85
2022/09/28 07:11:59;;;;;;;2.33;1.90;;;9.00;99.90;;;9.57;100.00;96237.81;4966094;28;20818;-85
2022/09/28 07:14:28;;;;;;;2.60;1.43;;;9.00;99.90;;;9.58;100.00;96247.22;4967097;28;21215;-84
2022/09/28 07:17:14;;;;;;;2.27;1.80;;;9.00;99.90;;;9.57;100.00;96243.03;4965118;28;20479;-84
2022/09/28 07:19:45;;;;;;;3.37;1.83;;;9.10;99.90;;;9.60;100.00;96250.41;4964266;28;20472;-84
2022/09/28 07:22:14;;;;;;;4.10;2.17;;;9.10;99.90;;;9.58;100.00;96262.88;4965361;28;20595;-84
2022/09/28 07:24:48;;;;;;;2.50;2.27;;;9.00;99.90;;;9.60;100.00;96265.28;4967487;28;20476;-85
2022/09/28 07:27:20;;;;;;;3.17;1.97;;;9.10;99.90;;;9.63;100.00;96266.63;4967525;28;21144;-85
2022/09/28 07:29:59;;;;;;;4.73;2.10;;;9.10;99.90;;;9.67;100.00;96273.00;4968675;28;20560;-84
2022/09/28 07:32:28;;;;;;;4.30;1.97;;;9.10;99.90;;;9.71;100.00;96279.38;4969929;28;20465;-83
2022/09/28 07:35:03;;;;;;;2.10;1.90;;;9.10;99.90;;;9.74;100.00;96279.72;4967887;28;20476;-84
2022/09/28 07:37:32;;;;;;;2.60;1.83;;;9.10;99.90;;;9.76;100.00;96282.88;4967701;28;20872;-83
2022/09/28 07:42:47;;;;;;;6.93;2.17;;;9.20;99.90;;;9.80;100.00;96283.22;4969644;28;20824;-84
2022/09/28 07:45:19;;;;;;;2.87;1.60;;;9.20;99.90;;;9.82;100.00;96286.41;4970012;28;20497;-85
2022/09/28 07:47:48;;;;;;;5.57;1.80;;;9.20;99.90;;;9.86;100.00;96292.75;4968929;28;20488;-85
2022/09/28 07:50:20;;;;;;;4.37;1.57;;;9.30;99.90;;;9.89;100.00;96303.53;4969670;28;20485;-84
2022/09/28 07:52:48;;;;;;;4.73;1.87;;;9.30;99.90;;;9.83;100.00;96301.03;4967379;28;20519;-83
2022/09/28 07:55:17;;;;;;;4.00;2.20;;;9.30;99.90;;;9.87;100.00;96310.03;4968124;28;20567;-82
2022/09/28 07:57:47;;;;;;;7.23;2.27;;;9.30;99.90;;;9.86;100.00;96304.00;4971005;28;20469;-83
2022/09/28 08:00:17;;;;;;;3.00;1.60;;;9.30;99.90;;;9.90;100.00;96314.78;4970319;28;20531;-84
2022/09/28 08:02:47;;;;;;;3.30;2.13;;;9.30;99.90;;;9.93;100.00;96319.56;4969014;28;20587;-84
2022/09/28 08:05:16;;;;;;;7.50;1.43;;;9.40;99.90;;;9.93;100.00;96316.94;4969108;28;20959;-84
2022/09/28 08:07:46;;;;;;;2.83;1.63;;;9.40;99.90;;;9.98;100.00;96315.25;4969705;28;20587;-83
2022/09/28 08:10:16;;;;;;;2.57;1.53;;;9.40;99.90;;;10.01;100.00;96321.84;4970828;28;20496;-84
2022/09/28 08:12:46;;;;;;;5.50;1.90;;;9.50;99.90;;;10.03;100.00;96319.81;4969062;28;20826;-84
2022/09/28 08:15:15;;;;;;;2.27;1.50;;;9.50;99.90;;;10.03;100.00;96325.03;4969566;28;20457;-85
2022/09/28 08:17:47;;;;;;;3.90;1.73;;;9.60;99.90;;;10.09;100.00;96327.53;4968807;28;20575;-84
2022/09/28 08:23:08;;;;;;;2.00;1.30;;;9.60;99.90;;;10.19;100.00;96332.22;4967146;28;20500;-84
2022/09/28 08:25:37;;;;;;;1.83;1.53;;;9.60;99.90;;;10.25;100.00;96336.53;4968316;28;20470;-84
2022/09/28 08:28:06;;;;;;;1.53;1.40;;;9.70;99.90;;;10.31;100.00;96335.63;4966510;28;20496;-85
2022/09/28 08:30:35;;;;;;;2.23;1.60;;;9.80;99.90;;;10.34;100.00;96334.41;4969040;28;20473;-84
2022/09/28 08:33:06;;;;;;;2.60;1.70;;;9.80;99.90;;;10.36;100.00;96338.34;4967628;28;20472;-84
2022/09/28 08:35:35;;;;;;;3.70;1.47;;;9.90;99.90;;;10.39;100.00;96340.50;4967264;28;20497;-83
2022/09/28 08:38:03;;;;;;;5.70;1.87;;;9.90;99.90;;;10.43;100.00;96348.69;4967335;28;20508;-84
2022/09/28 08:40:46;;;;;;;15.73;6.53;;;10.00;99.90;;;10.41;100.00;96348.13;4966027;28;20477;-82
2022/09/28 08:43:41;;;;;;;6.50;2.23;;;10.00;99.90;;;10.45;100.00;96354.47;4967914;28;20468;-84
2022/09/28 08:46:13;;;;;;;2.80;1.97;;;9.90;99.90;;;10.44;100.00;96355.53;4965310;28;21041;-84
2022/09/28 08:48:54;;;;;;;5.07;1.63;;;10.00;99.90;;;10.48;100.00;96352.19;4965559;28;20512;-83
2022/09/28 08:51:52;;;;;;;7.27;1.27;;;10.00;99.90;;;10.51;100.00;96349.16;4965946;28;20478;-84
2022/09/28 08:54:39;;;;;;;1.93;1.37;;;10.00;99.90;;;10.59;100.00;96340.16;4966229;28;21086;-84
2022/09/28 08:57:17;;;;;;;1.87;1.30;;;10.10;99.90;;;10.63;100.00;96335.25;4979496;28;20476;-83
2022/09/28 08:59:52;;;;;;;3.20;1.43;;;10.20;99.90;;;10.59;100.00;96335.72;4966664;28;21030;-83
2022/09/28 09:02:27;;;;;;;3.33;1.63;;;10.10;99.90;;;10.59;100.00;96342.75;4964595;28;21014;-84
2022/09/28 09:04:59;;;;;;;3.10;1.60;;;10.10;99.90;;;10.64;100.00;96353.34;4967376;28;20475;-86
2022/09/28 09:08:00;;;;;;;8.03;1.80;;;10.20;99.90;;;10.63;100.00;96350.94;4966636;28;20936;-83
2022/09/28 09:10:49;;;;;;;1.50;1.40;;;10.10;99.90;;;10.59;100.00;96348.78;4966479;28;20539;-85
2022/09/28 09:14:00;;;;;;;3.43;1.60;;;10.10;99.90;;;10.63;100.00;96350.94;4967487;28;20551;-84
2022/09/28 09:16:46;;;;;;;2.90;1.40;;;10.10;99.90;;;10.73;100.00;96359.00;4968043;28;20496;-85
2022/09/28 09:19:23;;;;;;;5.00;1.43;;;10.30;99.90;;;10.78;100.00;96359.13;4966889;28;20461;-84
2022/09/28 09:22:00;;;;;;;4.20;1.30;;;10.30;99.90;;;10.87;100.00;96358.53;4966802;28;21085;-83
2022/09/28 09:24:43;;;;;;;7.90;1.43;;;10.40;99.90;;;10.92;100.00;96361.25;4961963;28;20477;-84
2022/09/28 09:27:38;;;;;;;2.13;1.10;;;10.40;99.90;;;10.98;100.00;96370.78;4958914;28;20828;-84
2022/09/28 09:30:14;;;;;;;1.37;1.20;;;10.50;99.90;;;11.01;100.00;96369.53;4963221;28;20507;-84
2022/09/28 09:33:24;;;;;;;4.07;2.93;;;10.60;99.90;;;11.07;100.00;96368.63;4961351;28;20528;-83
2022/09/28 09:36:16;;;;;;;1.77;1.10;;;10.60;99.90;;;11.13;100.00;96356.44;4964690;28;20500;-84
2022/09/28 09:39:04;;;;;;;3.47;1.47;;;10.70;99.90;;;11.15;100.00;96362.22;4965588;28;20555;-85
2022/09/28 09:41:53;;;;;;;2.30;1.10;;;10.70;99.90;;;11.19;100.00;96372.00;4964482;28;20892;-85
2022/09/28 09:44:55;;;;;;;1.93;1.07;;;10.70;99.90;;;11.23;100.00;96367.09;4965516;28;21006;-86
2022/09/28 09:47:33;;;;;;;6.40;1.93;;;10.80;99.90;;;11.26;100.00;96372.66;4966086;28;20488;-85
2022/09/28 09:50:12;;;;;;;2.20;1.10;;;10.80;99.90;;;11.29;100.00;96377.44;4965806;28;20992;-86
2022/09/28 09:52:55;;;;;;;3.67;1.30;;;10.90;99.90;;;11.27;100.00;96374.25;4965850;28;20575;-86
2022/09/28 09:55:31;;;;;;;5.53;1.87;;;10.90;99.90;;;11.31;100.00;96379.81;4960145;28;20496;-86
2022/09/28 09:58:11;;;;;;;2.63;0.93;;;10.80;99.90;;;11.33;100.00;96367.28;4966072;28;20563;-86
2022/09/28 10:00:45;;;;;;;1.97;1.20;;;10.90;99.90;;;11.34;100.00;96369.69;4971190;28;20998;-90
2022/09/28 10:03:25;;;;;;;6.67;1.40;;;11.00;99.90;;;11.39;100.00;96376.81;4969431;28;20529;-89
2022/09/28 10:06:02;;;;;;;3.13;1.27;;;11.00;99.90;;;11.42;100.00;96368.53;4973347;28;20480;-89
2022/09/28 10:08:39;;;;;;;9.10;1.10;;;10.90;99.90;;;11.49;100.00;96372.56;4972309;28;20484;-90
2022/09/28 10:11:14;;;;;;;2.37;1.07;;;11.10;99.90;;;11.49;100.00;96369.94;4971276;28;20488;-89
2022/09/28 10:13:43;;;;;;;2.13;1.27;;;11.10;99.90;;;11.49;100.00;96387.47;4968747;28;20492;-89
2022/09/28 10:16:13;;;;;;;6.10;1.37;;;11.10;99.90;;;11.53;100.00;96378.13;4971464;28;20477;-90
2022/09/28 10:18:43;;;;;;;6.00;1.40;;;11.10;99.90;;;11.59;100.00;96377.22;4970176;28;20500;-89
2022/09/28 10:21:14;;;;;;;5.87;3.10;;;11.10;99.90;;;11.60;100.00;96382.22;4971857;28;20551;-91
2022/09/28 10:23:45;;;;;;;7.97;1.73;;;11.20;99.90;;;11.57;100.00;96390.53;4971850;28;20523;-89
2022/09/28 10:26:21;;;;;;;2.07;1.47;;;11.20;99.90;;;11.56;100.00;96393.38;4967494;28;20904;-89
2022/09/28 10:28:58;;;;;;;3.00;1.20;;;11.20;99.90;;;11.61;100.00;96388.25;4984368;28;20608;-91
2022/09/28 10:31:43;;;;;;;1.77;1.37;;;11.10;99.90;;;11.66;100.00;96384.94;4983185;28;20487;-91
2022/09/28 10:34:17;;;;;;;4.67;1.77;;;11.10;99.90;;;11.72;100.00;96391.88;4976892;28;20496;-89
2022/09/28 10:36:57;;;;;;;1.73;1.23;;;11.20;99.90;;;11.73;100.00;96389.00;4975174;28;20463;-90
2022/09/28 10:39:36;;;;;;;4.37;1.50;;;11.30;99.90;;;11.76;100.00;96383.31;4973375;28;20527;-90
2022/09/28 10:42:11;;;;;;;3.37;1.40;;;11.30;99.90;;;11.72;100.00;96391.88;4980945;28;20441;-91
2022/09/28 10:44:54;;;;;;;2.17;1.43;;;11.40;99.90;;;11.74;100.00;96395.03;4977560;28;20468;-91
2022/09/28 10:47:28;;;;;;;2.33;1.27;;;11.40;99.90;;;11.79;100.00;96392.53;4972197;28;20464;-87
2022/09/28 10:49:59;;;;;;;3.10;1.20;;;11.40;99.90;;;11.80;100.00;96399.34;4971486;28;20543;-92
2022/09/28 10:52:36;;;;;;;2.20;1.50;;;11.40;99.90;;;11.81;100.00;96401.72;4976748;28;20551;-92
2022/09/28 10:55:29;;;;;;;2.17;1.30;;;11.40;99.90;;;11.87;100.00;96397.38;4977665;28;20496;-91
2022/09/28 10:57:59;;;;;;;3.80;1.67;;;11.50;99.90;;;11.86;100.00;96395.78;4985613;28;20510;-92
2022/09/28 11:00:39;;;;;;;2.40;1.50;;;11.50;99.90;;;11.85;100.00;96396.81;4980976;28;20547;-92